createdAt,value
2022-08-25T00:00:04.942Z,21.88
2022-08-25T00:00:14.955Z,21.86
2022-08-25T00:00:24.934Z,21.82
2022-08-25T00:00:34.935Z,21.80
2022-08-25T00:00:44.934Z,21.80
2022-08-25T00:00:54.965Z,21.79
2022-08-25T00:01:04.945Z,21.77
2022-08-25T00:01:14.937Z,21.75
2022-08-25T00:01:27.025Z,21.74
2022-08-25T00:01:34.937Z,21.75
2022-08-25T00:01:44.925Z,21.74
2022-08-25T00:01:54.945Z,21.75
2022-08-25T00:02:04.926Z,21.72
2022-08-25T00:02:14.964Z,21.69
2022-08-25T00:02:25.033Z,21.69
2022-08-25T00:02:34.950Z,21.69
2022-08-25T00:02:55.561Z,21.68
2022-08-25T00:02:56.663Z,21.68
2022-08-25T00:03:05.001Z,21.68
2022-08-25T00:03:14.925Z,21.65
2022-08-25T00:03:24.925Z,21.67
2022-08-25T00:03:35.971Z,21.64
2022-08-25T00:03:44.927Z,21.64
2022-08-25T00:03:54.916Z,21.62
2022-08-25T00:04:04.929Z,21.61
2022-08-25T00:04:14.917Z,21.59
2022-08-25T00:04:24.926Z,21.59
2022-08-25T00:04:34.927Z,21.59
2022-08-25T00:04:44.929Z,21.59
2022-08-25T00:04:54.916Z,21.58
2022-08-25T00:05:05.018Z,21.56
2022-08-25T00:05:14.934Z,21.54
2022-08-25T00:05:24.962Z,21.58
2022-08-25T00:05:34.937Z,21.56
2022-08-25T00:05:45.000Z,21.54
2022-08-25T00:05:54.973Z,21.54
2022-08-25T00:06:04.927Z,21.54
2022-08-25T00:06:14.907Z,21.53
2022-08-25T00:06:24.907Z,21.53
2022-08-25T00:06:34.920Z,21.53
2022-08-25T00:06:44.928Z,21.49
2022-08-25T00:06:58.266Z,21.49
2022-08-25T00:07:04.927Z,21.49
2022-08-25T00:07:18.553Z,21.46
2022-08-25T00:07:24.907Z,21.44
2022-08-25T00:07:34.909Z,21.43
2022-08-25T00:07:44.915Z,21.42
2022-08-25T00:07:54.907Z,21.38
2022-08-25T00:08:05.117Z,21.35
2022-08-25T00:08:14.908Z,21.35
2022-08-25T00:08:24.896Z,21.34
2022-08-25T00:08:34.942Z,21.31
2022-08-25T00:08:44.898Z,21.29
2022-08-25T00:08:54.899Z,21.28
2022-08-25T00:09:04.900Z,21.27
2022-08-25T00:09:14.925Z,21.27
2022-08-25T00:09:24.898Z,21.25
2022-08-25T00:09:34.898Z,21.25
2022-08-25T00:09:44.899Z,21.24
2022-08-25T00:09:54.899Z,21.22
2022-08-25T00:10:04.888Z,21.22
2022-08-25T00:10:14.918Z,21.21
2022-08-25T00:10:24.892Z,21.16
2022-08-25T00:10:34.889Z,21.14
2022-08-25T00:10:44.888Z,21.13
2022-08-25T00:11:03.094Z,21.12
2022-08-25T00:11:04.899Z,21.12
2022-08-25T00:11:14.897Z,21.09
2022-08-25T00:11:24.886Z,21.06
2022-08-25T00:11:34.898Z,21.06
2022-08-25T00:11:44.889Z,21.03
2022-08-25T00:11:54.888Z,21.01
2022-08-25T00:12:04.889Z,20.99
2022-08-25T00:12:14.892Z,20.99
2022-08-25T00:12:24.888Z,20.98
2022-08-25T00:12:34.892Z,20.97
2022-08-25T00:12:44.889Z,20.97
2022-08-25T00:12:54.881Z,20.97
2022-08-25T00:13:04.888Z,20.94
2022-08-25T00:13:14.880Z,20.92
2022-08-25T00:13:24.879Z,20.89
2022-08-25T00:13:34.880Z,20.87
2022-08-25T00:13:44.870Z,20.87
2022-08-25T00:13:54.880Z,20.85
2022-08-25T00:14:04.890Z,20.84
2022-08-25T00:14:14.880Z,20.84
2022-08-25T00:14:24.880Z,20.82
2022-08-25T00:14:34.883Z,20.84
2022-08-25T00:14:44.881Z,20.82
2022-08-25T00:14:54.880Z,20.82
2022-08-25T00:15:04.878Z,20.82
2022-08-25T00:15:14.872Z,20.80
2022-08-25T00:15:24.879Z,20.82
2022-08-25T00:15:34.904Z,20.80
2022-08-25T00:15:44.892Z,20.82
2022-08-25T00:15:54.900Z,20.84
2022-08-25T00:16:04.913Z,20.87
2022-08-25T00:16:14.951Z,20.87
2022-08-25T00:16:24.861Z,20.85
2022-08-25T00:16:34.879Z,20.85
2022-08-25T00:16:44.861Z,20.84
2022-08-25T00:16:56.125Z,20.87
2022-08-25T00:17:04.872Z,20.85
2022-08-25T00:17:14.863Z,20.85
2022-08-25T00:17:24.860Z,20.85
2022-08-25T00:17:34.862Z,20.85
2022-08-25T00:17:44.863Z,20.84
2022-08-25T00:17:54.866Z,20.84
2022-08-25T00:18:05.047Z,20.84
2022-08-25T00:18:19.780Z,20.84
2022-08-25T00:18:24.854Z,20.85
2022-08-25T00:18:34.864Z,20.80
2022-08-25T00:18:44.858Z,20.82
2022-08-25T00:18:54.872Z,20.84
2022-08-25T00:19:04.867Z,20.82
2022-08-25T00:19:14.874Z,20.82
2022-08-25T00:19:24.862Z,20.82
2022-08-25T00:19:34.852Z,20.80
2022-08-25T00:19:44.853Z,20.80
2022-08-25T00:19:54.851Z,20.82
2022-08-25T00:20:04.852Z,20.80
2022-08-25T00:20:14.854Z,20.80
2022-08-25T00:20:24.856Z,20.77
2022-08-25T00:20:34.843Z,20.77
2022-08-25T00:20:48.778Z,20.77
2022-08-25T00:20:54.851Z,20.79
2022-08-25T00:21:04.841Z,20.79
2022-08-25T00:21:14.854Z,20.79
2022-08-25T00:21:24.843Z,20.82
2022-08-25T00:21:34.859Z,20.82
2022-08-25T00:21:44.863Z,20.82
2022-08-25T00:21:54.845Z,20.80
2022-08-25T00:22:04.844Z,20.80
2022-08-25T00:22:14.848Z,20.80
2022-08-25T00:22:24.836Z,20.80
2022-08-25T00:22:34.847Z,20.79
2022-08-25T00:22:44.835Z,20.80
2022-08-25T00:22:54.871Z,20.80
2022-08-25T00:23:04.833Z,20.82
2022-08-25T00:23:14.842Z,20.82
2022-08-25T00:23:24.842Z,20.82
2022-08-25T00:23:34.835Z,20.80
2022-08-25T00:23:44.834Z,20.80
2022-08-25T00:23:54.825Z,20.79
2022-08-25T00:24:04.844Z,20.79
2022-08-25T00:24:14.836Z,20.77
2022-08-25T00:24:24.838Z,20.77
2022-08-25T00:24:34.831Z,20.76
2022-08-25T00:24:44.834Z,20.73
2022-08-25T00:24:54.825Z,20.73
2022-08-25T00:25:04.835Z,20.73
2022-08-25T00:25:14.825Z,20.70
2022-08-25T00:25:24.836Z,20.72
2022-08-25T00:25:34.824Z,20.70
2022-08-25T00:25:44.838Z,20.69
2022-08-25T00:25:54.841Z,20.66
2022-08-25T00:26:04.825Z,20.66
2022-08-25T00:26:14.825Z,20.64
2022-08-25T00:26:24.815Z,20.64
2022-08-25T00:26:34.826Z,20.61
2022-08-25T00:26:44.825Z,20.59
2022-08-25T00:26:54.814Z,20.59
2022-08-25T00:27:04.826Z,20.55
2022-08-25T00:27:14.820Z,20.54
2022-08-25T00:27:24.816Z,20.54
2022-08-25T00:27:34.814Z,20.51
2022-08-25T00:27:45.883Z,20.51
2022-08-25T00:27:54.841Z,20.51
2022-08-25T00:28:08.361Z,20.51
2022-08-25T00:28:14.822Z,20.50
2022-08-25T00:28:24.815Z,20.48
2022-08-25T00:28:34.816Z,20.47
2022-08-25T00:28:44.873Z,20.47
2022-08-25T00:28:56.392Z,20.42
2022-08-25T00:29:04.816Z,20.43
2022-08-25T00:29:14.826Z,20.42
2022-08-25T00:29:24.807Z,20.42
2022-08-25T00:29:34.806Z,20.43
2022-08-25T00:29:44.808Z,20.42
2022-08-25T00:29:54.806Z,20.42
2022-08-25T00:30:04.817Z,20.41
2022-08-25T00:30:16.054Z,20.41
2022-08-25T00:30:24.811Z,20.41
2022-08-25T00:30:34.796Z,20.39
2022-08-25T00:30:44.839Z,20.38
2022-08-25T00:30:54.925Z,20.36
2022-08-25T00:31:04.867Z,20.36
2022-08-25T00:31:14.838Z,20.33
2022-08-25T00:31:24.874Z,20.33
2022-08-25T00:31:38.435Z,20.32
2022-08-25T00:31:44.822Z,20.32
2022-08-25T00:31:54.808Z,20.31
2022-08-25T00:32:04.798Z,20.29
2022-08-25T00:32:14.798Z,20.28
2022-08-25T00:32:24.820Z,20.29
2022-08-25T00:32:34.817Z,20.29
2022-08-25T00:32:48.931Z,20.28
2022-08-25T00:32:57.365Z,20.29
2022-08-25T00:33:04.787Z,20.26
2022-08-25T00:33:14.810Z,20.26
2022-08-25T00:33:24.792Z,20.26
2022-08-25T00:33:34.793Z,20.26
2022-08-25T00:33:44.787Z,20.26
2022-08-25T00:33:54.795Z,20.23
2022-08-25T00:34:04.798Z,20.23
2022-08-25T00:34:14.787Z,20.23
2022-08-25T00:34:24.789Z,20.21
2022-08-25T00:34:34.787Z,20.20
2022-08-25T00:34:44.794Z,20.17
2022-08-25T00:34:54.791Z,20.17
2022-08-25T00:35:04.788Z,20.20
2022-08-25T00:35:14.784Z,20.18
2022-08-25T00:35:24.782Z,20.18
2022-08-25T00:35:34.818Z,20.21
2022-08-25T00:35:44.793Z,20.20
2022-08-25T00:35:54.779Z,20.21
2022-08-25T00:36:04.782Z,20.21
2022-08-25T00:36:14.777Z,20.18
2022-08-25T00:36:24.778Z,20.18
2022-08-25T00:36:34.797Z,20.18
2022-08-25T00:36:44.779Z,20.20
2022-08-25T00:36:54.769Z,20.17
2022-08-25T00:37:04.780Z,20.17
2022-08-25T00:37:14.770Z,20.16
2022-08-25T00:37:24.779Z,20.17
2022-08-25T00:37:34.777Z,20.16
2022-08-25T00:37:44.770Z,20.16
2022-08-25T00:37:54.785Z,20.14
2022-08-25T00:38:04.999Z,20.14
2022-08-25T00:38:14.770Z,20.14
2022-08-25T00:38:24.769Z,20.14
2022-08-25T00:38:34.768Z,20.13
2022-08-25T00:38:44.791Z,20.13
2022-08-25T00:38:54.769Z,20.11
2022-08-25T00:39:04.759Z,20.14
2022-08-25T00:39:14.760Z,20.13
2022-08-25T00:39:24.773Z,20.14
2022-08-25T00:39:34.767Z,20.16
2022-08-25T00:39:44.798Z,20.14
2022-08-25T00:39:54.787Z,20.14
2022-08-25T00:40:04.827Z,20.16
2022-08-25T00:40:14.817Z,20.14
2022-08-25T00:40:24.826Z,20.16
2022-08-25T00:40:34.754Z,20.16
2022-08-25T00:40:44.750Z,20.16
2022-08-25T00:40:54.761Z,20.14
2022-08-25T00:41:04.841Z,20.14
2022-08-25T00:41:14.750Z,20.14
2022-08-25T00:41:24.752Z,20.13
2022-08-25T00:41:34.752Z,20.11
2022-08-25T00:41:44.763Z,20.13
2022-08-25T00:41:54.750Z,20.14
2022-08-25T00:42:04.752Z,20.13
2022-08-25T00:42:16.234Z,20.16
2022-08-25T00:42:24.742Z,20.14
2022-08-25T00:42:34.761Z,20.16
2022-08-25T00:42:44.771Z,20.16
2022-08-25T00:42:54.754Z,20.14
2022-08-25T00:43:04.740Z,20.14
2022-08-25T00:43:14.742Z,20.13
2022-08-25T00:43:24.758Z,20.13
2022-08-25T00:43:34.742Z,20.13
2022-08-25T00:43:44.755Z,20.10
2022-08-25T00:43:54.750Z,20.13
2022-08-25T00:44:04.741Z,20.10
2022-08-25T00:44:14.752Z,20.08
2022-08-25T00:44:24.763Z,20.08
2022-08-25T00:44:34.743Z,20.06
2022-08-25T00:44:45.095Z,20.05
2022-08-25T00:44:54.739Z,20.03
2022-08-25T00:45:04.731Z,20.03
2022-08-25T00:45:14.733Z,20.01
2022-08-25T00:45:24.742Z,19.99
2022-08-25T00:45:34.726Z,19.98
2022-08-25T00:45:44.742Z,19.98
2022-08-25T00:45:54.802Z,19.95
2022-08-25T00:46:04.852Z,19.94
2022-08-25T00:46:14.875Z,19.91
2022-08-25T00:46:24.774Z,19.88
2022-08-25T00:46:34.765Z,19.88
2022-08-25T00:46:44.746Z,19.84
2022-08-25T00:46:54.727Z,19.84
2022-08-25T00:47:04.721Z,19.84
2022-08-25T00:47:14.745Z,19.84
2022-08-25T00:47:24.731Z,19.81
2022-08-25T00:47:34.723Z,19.83
2022-08-25T00:47:44.723Z,19.83
2022-08-25T00:47:54.738Z,19.81
2022-08-25T00:48:04.917Z,19.81
2022-08-25T00:48:14.714Z,19.78
2022-08-25T00:48:24.715Z,19.76
2022-08-25T00:48:34.725Z,19.76
2022-08-25T00:48:44.715Z,19.76
2022-08-25T00:48:54.720Z,19.74
2022-08-25T00:49:04.713Z,19.76
2022-08-25T00:49:17.937Z,19.73
2022-08-25T00:49:25.657Z,19.73
2022-08-25T00:49:34.743Z,19.73
2022-08-25T00:49:44.719Z,19.71
2022-08-25T00:49:54.726Z,19.69
2022-08-25T00:50:04.713Z,19.69
2022-08-25T00:50:14.714Z,19.68
2022-08-25T00:50:26.650Z,19.66
2022-08-25T00:50:34.704Z,19.68
2022-08-25T00:50:44.717Z,19.65
2022-08-25T00:50:54.704Z,19.65
2022-08-25T00:51:04.713Z,19.62
2022-08-25T00:51:14.704Z,19.63
2022-08-25T00:51:24.715Z,19.61
2022-08-25T00:51:34.705Z,19.61
2022-08-25T00:51:44.709Z,19.61
2022-08-25T00:51:54.704Z,19.62
2022-08-25T00:52:04.703Z,19.63
2022-08-25T00:52:14.704Z,19.65
2022-08-25T00:52:24.705Z,19.65
2022-08-25T00:52:34.694Z,19.65
2022-08-25T00:52:44.716Z,19.65
2022-08-25T00:52:55.367Z,19.66
2022-08-25T00:53:04.716Z,19.66
2022-08-25T00:53:14.696Z,19.66
2022-08-25T00:53:24.695Z,19.66
2022-08-25T00:53:34.706Z,19.69
2022-08-25T00:53:44.697Z,19.69
2022-08-25T00:53:54.695Z,19.69
2022-08-25T00:54:04.695Z,19.68
2022-08-25T00:54:14.693Z,19.69
2022-08-25T00:54:24.705Z,19.69
2022-08-25T00:54:34.686Z,19.69
2022-08-25T00:54:44.708Z,19.69
2022-08-25T00:54:54.685Z,19.69
2022-08-25T00:55:08.058Z,19.69
2022-08-25T00:55:14.686Z,19.71
2022-08-25T00:55:24.688Z,19.71
2022-08-25T00:55:34.686Z,19.71
2022-08-25T00:55:44.696Z,19.69
2022-08-25T00:55:54.678Z,19.66
2022-08-25T00:56:04.697Z,19.66
2022-08-25T00:56:14.707Z,19.68
2022-08-25T00:56:24.686Z,19.66
2022-08-25T00:56:34.676Z,19.66
2022-08-25T00:56:44.697Z,19.66
2022-08-25T00:56:54.677Z,19.66
2022-08-25T00:57:04.687Z,19.65
2022-08-25T00:57:14.676Z,19.65
2022-08-25T00:57:34.008Z,19.66
2022-08-25T00:57:35.188Z,19.66
2022-08-25T00:57:44.677Z,19.65
2022-08-25T00:57:54.676Z,19.65
2022-08-25T00:58:04.962Z,19.63
2022-08-25T00:58:14.675Z,19.65
2022-08-25T00:58:24.677Z,19.63
2022-08-25T00:58:34.668Z,19.63
2022-08-25T00:58:44.677Z,19.63
2022-08-25T00:58:54.675Z,19.65
2022-08-25T00:59:04.680Z,19.63
2022-08-25T00:59:14.667Z,19.65
2022-08-25T00:59:24.667Z,19.65
2022-08-25T00:59:34.667Z,19.65
2022-08-25T00:59:44.667Z,19.66
2022-08-25T00:59:54.680Z,19.66
2022-08-25T01:00:04.668Z,19.66
2022-08-25T01:00:14.675Z,19.68
2022-08-25T01:00:24.672Z,19.69
2022-08-25T01:00:34.679Z,19.71
2022-08-25T01:00:44.668Z,19.71
2022-08-25T01:00:54.670Z,19.71
2022-08-25T01:01:04.691Z,19.73
2022-08-25T01:01:14.732Z,19.74
2022-08-25T01:01:24.726Z,19.74
2022-08-25T01:01:34.698Z,19.74
2022-08-25T01:01:44.723Z,19.74
2022-08-25T01:01:54.722Z,19.74
2022-08-25T01:02:04.648Z,19.76
2022-08-25T01:02:14.724Z,19.77
2022-08-25T01:02:24.689Z,19.76
2022-08-25T01:02:34.692Z,19.78
2022-08-25T01:02:44.767Z,19.77
2022-08-25T01:02:54.705Z,19.77
2022-08-25T01:03:04.726Z,19.78
2022-08-25T01:03:14.656Z,19.78
2022-08-25T01:03:25.248Z,19.77
2022-08-25T01:03:35.787Z,19.77
2022-08-25T01:03:44.650Z,19.78
2022-08-25T01:03:54.650Z,19.78
2022-08-25T01:04:04.650Z,19.78
2022-08-25T01:04:14.649Z,19.78
2022-08-25T01:04:24.660Z,19.78
2022-08-25T01:04:34.659Z,19.80
2022-08-25T01:04:48.887Z,19.81
2022-08-25T01:04:54.656Z,19.81
2022-08-25T01:05:04.650Z,19.80
2022-08-25T01:05:14.639Z,19.80
2022-08-25T01:05:24.646Z,19.80
2022-08-25T01:05:34.647Z,19.81
2022-08-25T01:05:44.639Z,19.80
2022-08-25T01:05:54.651Z,19.81
2022-08-25T01:06:04.660Z,19.78
2022-08-25T01:06:14.649Z,19.81
2022-08-25T01:06:24.642Z,19.80
2022-08-25T01:06:34.650Z,19.80
2022-08-25T01:06:44.640Z,19.80
2022-08-25T01:06:54.639Z,19.81
2022-08-25T01:07:04.631Z,19.80
2022-08-25T01:07:17.429Z,19.80
2022-08-25T01:07:24.644Z,19.78
2022-08-25T01:07:34.652Z,19.74
2022-08-25T01:07:44.833Z,19.77
2022-08-25T01:08:02.419Z,19.74
2022-08-25T01:08:06.739Z,19.74
2022-08-25T01:08:16.431Z,19.73
2022-08-25T01:08:24.631Z,19.74
2022-08-25T01:08:34.631Z,19.71
2022-08-25T01:08:44.641Z,19.71
2022-08-25T01:08:54.632Z,19.69
2022-08-25T01:09:04.631Z,19.71
2022-08-25T01:09:14.630Z,19.69
2022-08-25T01:09:24.632Z,19.68
2022-08-25T01:09:34.683Z,19.65
2022-08-25T01:09:44.620Z,19.65
2022-08-25T01:09:54.631Z,19.65
2022-08-25T01:10:04.629Z,19.63
2022-08-25T01:10:14.621Z,19.62
2022-08-25T01:10:24.612Z,19.61
2022-08-25T01:10:34.624Z,19.61
2022-08-25T01:10:44.615Z,19.59
2022-08-25T01:10:54.630Z,19.61
2022-08-25T01:11:04.614Z,19.58
2022-08-25T01:11:14.620Z,19.58
2022-08-25T01:11:24.621Z,19.56
2022-08-25T01:11:34.623Z,19.56
2022-08-25T01:11:44.613Z,19.56
2022-08-25T01:11:54.611Z,19.58
2022-08-25T01:12:04.612Z,19.58
2022-08-25T01:12:14.631Z,19.59
2022-08-25T01:12:44.623Z,19.59
2022-08-25T01:12:49.050Z,19.59
2022-08-25T01:12:59.055Z,19.58
2022-08-25T01:13:16.339Z,19.59
2022-08-25T01:13:19.060Z,19.59
2022-08-25T01:13:29.039Z,19.58
2022-08-25T01:13:39.044Z,19.56
2022-08-25T01:13:49.033Z,19.55
2022-08-25T01:13:59.043Z,19.55
2022-08-25T01:14:09.042Z,19.55
2022-08-25T01:14:19.042Z,19.56
2022-08-25T01:14:29.045Z,19.55
2022-08-25T01:14:39.043Z,19.54
2022-08-25T01:14:49.035Z,19.54
2022-08-25T01:14:59.039Z,19.54
2022-08-25T01:15:09.033Z,19.51
2022-08-25T01:15:19.038Z,19.51
2022-08-25T01:15:29.093Z,19.50
2022-08-25T01:15:39.069Z,19.51
2022-08-25T01:15:49.121Z,19.50
2022-08-25T01:15:59.109Z,19.50
2022-08-25T01:16:09.106Z,19.50
2022-08-25T01:16:19.155Z,19.48
2022-08-25T01:16:29.023Z,19.47
2022-08-25T01:16:39.034Z,19.47
2022-08-25T01:16:51.241Z,19.46
2022-08-25T01:16:59.035Z,19.47
2022-08-25T01:17:09.023Z,19.43
2022-08-25T01:17:19.024Z,19.43
2022-08-25T01:17:29.027Z,19.44
2022-08-25T01:17:39.017Z,19.44
2022-08-25T01:17:49.024Z,19.43
2022-08-25T01:17:59.763Z,19.43
2022-08-25T01:18:09.026Z,19.43
2022-08-25T01:18:19.022Z,19.43
2022-08-25T01:18:29.028Z,19.43
2022-08-25T01:18:39.025Z,19.43
2022-08-25T01:18:49.023Z,19.43
2022-08-25T01:18:59.015Z,19.41
2022-08-25T01:19:09.014Z,19.43
2022-08-25T01:19:19.017Z,19.43
2022-08-25T01:19:29.014Z,19.41
2022-08-25T01:19:39.016Z,19.43
2022-08-25T01:19:49.027Z,19.43
2022-08-25T01:19:59.005Z,19.41
2022-08-25T01:20:09.016Z,19.43
2022-08-25T01:20:19.004Z,19.43
2022-08-25T01:20:29.631Z,19.40
2022-08-25T01:20:39.006Z,19.41
2022-08-25T01:20:49.005Z,19.40
2022-08-25T01:20:59.025Z,19.40
2022-08-25T01:21:09.011Z,19.39
2022-08-25T01:21:19.013Z,19.39
2022-08-25T01:21:29.012Z,19.36
2022-08-25T01:21:39.008Z,19.36
2022-08-25T01:21:48.996Z,19.33
2022-08-25T01:21:58.996Z,19.33
2022-08-25T01:22:09.014Z,19.32
2022-08-25T01:22:18.995Z,19.33
2022-08-25T01:22:29.005Z,19.32
2022-08-25T01:22:38.996Z,19.32
2022-08-25T01:22:55.088Z,19.31
2022-08-25T01:22:59.003Z,19.33
2022-08-25T01:23:09.014Z,19.32
2022-08-25T01:23:18.995Z,19.31
2022-08-25T01:23:29.005Z,19.31
2022-08-25T01:23:38.996Z,19.29
2022-08-25T01:23:48.996Z,19.31
2022-08-25T01:23:58.996Z,19.29
2022-08-25T01:24:09.004Z,19.28
2022-08-25T01:24:18.987Z,19.26
2022-08-25T01:24:29.000Z,19.26
2022-08-25T01:24:38.996Z,19.23
2022-08-25T01:24:49.028Z,19.23
2022-08-25T01:24:58.995Z,19.22
2022-08-25T01:25:08.996Z,19.22
2022-08-25T01:25:18.998Z,19.22
2022-08-25T01:25:28.997Z,19.22
2022-08-25T01:25:38.988Z,19.22
2022-08-25T01:25:48.990Z,19.22
2022-08-25T01:25:58.987Z,19.22
2022-08-25T01:26:09.007Z,19.22
2022-08-25T01:26:18.997Z,19.22
2022-08-25T01:26:30.652Z,19.22
2022-08-25T01:26:38.988Z,19.22
2022-08-25T01:26:48.996Z,19.19
2022-08-25T01:26:58.987Z,19.19
2022-08-25T01:27:08.986Z,19.18
2022-08-25T01:27:18.986Z,19.18
2022-08-25T01:27:28.977Z,19.18
2022-08-25T01:27:38.977Z,19.16
2022-08-25T01:27:48.978Z,19.18
2022-08-25T01:27:58.980Z,19.16
2022-08-25T01:28:08.975Z,19.16
2022-08-25T01:28:18.987Z,19.16
2022-08-25T01:28:28.968Z,19.16
2022-08-25T01:28:38.994Z,19.14
2022-08-25T01:28:48.971Z,19.11
2022-08-25T01:28:58.978Z,19.10
2022-08-25T01:29:08.967Z,19.10
2022-08-25T01:29:18.992Z,19.08
2022-08-25T01:29:28.986Z,19.08
2022-08-25T01:29:38.978Z,19.07
2022-08-25T01:29:48.968Z,19.07
2022-08-25T01:29:58.978Z,19.06
2022-08-25T01:30:08.968Z,19.06
2022-08-25T01:30:18.978Z,19.04
2022-08-25T01:30:28.987Z,19.04
2022-08-25T01:30:39.025Z,19.02
2022-08-25T01:30:49.047Z,19.00
2022-08-25T01:30:59.040Z,19.00
2022-08-25T01:31:23.685Z,18.99
2022-08-25T01:31:24.093Z,18.98
2022-08-25T01:31:29.025Z,18.98
2022-08-25T01:31:39.011Z,18.94
2022-08-25T01:31:48.959Z,18.92
2022-08-25T01:31:58.962Z,18.94
2022-08-25T01:32:08.957Z,18.91
2022-08-25T01:32:18.960Z,18.91
2022-08-25T01:32:28.970Z,18.90
2022-08-25T01:32:38.959Z,18.88
2022-08-25T01:32:48.967Z,18.87
2022-08-25T01:32:58.958Z,18.87
2022-08-25T01:33:08.960Z,18.84
2022-08-25T01:33:18.958Z,18.84
2022-08-25T01:33:28.949Z,18.84
2022-08-25T01:33:38.961Z,18.82
2022-08-25T01:33:48.948Z,18.81
2022-08-25T01:33:58.958Z,18.80
2022-08-25T01:34:08.947Z,18.81
2022-08-25T01:34:18.952Z,18.80
2022-08-25T01:34:28.960Z,18.78
2022-08-25T01:34:38.947Z,18.76
2022-08-25T01:34:48.950Z,18.76
2022-08-25T01:34:58.950Z,18.73
2022-08-25T01:35:08.952Z,18.73
2022-08-25T01:35:18.942Z,18.72
2022-08-25T01:35:28.950Z,18.72
2022-08-25T01:35:38.942Z,18.72
2022-08-25T01:35:48.948Z,18.70
2022-08-25T01:35:58.951Z,18.69
2022-08-25T01:36:08.941Z,18.67
2022-08-25T01:36:18.940Z,18.69
2022-08-25T01:36:28.939Z,18.69
2022-08-25T01:36:38.948Z,18.67
2022-08-25T01:36:48.940Z,18.69
2022-08-25T01:36:58.941Z,18.69
2022-08-25T01:37:08.932Z,18.69
2022-08-25T01:37:18.943Z,18.70
2022-08-25T01:37:28.931Z,18.67
2022-08-25T01:37:38.942Z,18.67
2022-08-25T01:37:48.940Z,18.67
2022-08-25T01:37:59.009Z,18.67
2022-08-25T01:38:08.932Z,18.67
2022-08-25T01:38:18.952Z,18.65
2022-08-25T01:38:28.931Z,18.65
2022-08-25T01:38:38.933Z,18.65
2022-08-25T01:38:48.932Z,18.65
2022-08-25T01:38:58.931Z,18.65
2022-08-25T01:39:08.934Z,18.65
2022-08-25T01:39:18.932Z,18.65
2022-08-25T01:39:28.955Z,18.63
2022-08-25T01:39:38.935Z,18.63
2022-08-25T01:39:48.961Z,18.63
2022-08-25T01:39:58.958Z,18.63
2022-08-25T01:40:08.979Z,18.60
2022-08-25T01:40:19.016Z,18.60
2022-08-25T01:40:28.995Z,18.62
2022-08-25T01:40:38.922Z,18.60
2022-08-25T01:40:48.912Z,18.60
2022-08-25T01:40:58.924Z,18.60
2022-08-25T01:41:08.913Z,18.60
2022-08-25T01:41:18.924Z,18.58
2022-08-25T01:41:28.921Z,18.58
2022-08-25T01:41:38.925Z,18.58
2022-08-25T01:41:48.933Z,18.57
2022-08-25T01:41:58.914Z,18.57
2022-08-25T01:42:08.912Z,18.55
2022-08-25T01:42:18.920Z,18.55
2022-08-25T01:42:28.915Z,18.55
2022-08-25T01:42:38.931Z,18.52
2022-08-25T01:42:48.929Z,18.52
2022-08-25T01:42:58.912Z,18.52
2022-08-25T01:43:08.910Z,18.52
2022-08-25T01:43:18.906Z,18.51
2022-08-25T01:43:28.905Z,18.51
2022-08-25T01:43:38.915Z,18.52
2022-08-25T01:43:48.921Z,18.52
2022-08-25T01:43:58.903Z,18.52
2022-08-25T01:44:08.903Z,18.51
2022-08-25T01:44:18.911Z,18.51
2022-08-25T01:44:28.927Z,18.52
2022-08-25T01:44:38.925Z,18.54
2022-08-25T01:44:48.898Z,18.54
2022-08-25T01:44:58.905Z,18.54
2022-08-25T01:45:08.901Z,18.52
2022-08-25T01:45:18.907Z,18.54
2022-08-25T01:45:28.972Z,18.52
2022-08-25T01:45:38.894Z,18.54
2022-08-25T01:45:48.971Z,18.52
2022-08-25T01:45:58.938Z,18.52
2022-08-25T01:46:08.917Z,18.52
2022-08-25T01:46:18.946Z,18.52
2022-08-25T01:46:28.961Z,18.52
2022-08-25T01:46:38.959Z,18.51
2022-08-25T01:46:48.894Z,18.52
2022-08-25T01:46:58.895Z,18.51
2022-08-25T01:47:08.895Z,18.50
2022-08-25T01:47:18.887Z,18.50
2022-08-25T01:47:28.893Z,18.51
2022-08-25T01:47:38.885Z,18.48
2022-08-25T01:47:48.893Z,18.48
2022-08-25T01:47:58.886Z,18.48
2022-08-25T01:48:08.894Z,18.48
2022-08-25T01:48:18.895Z,18.47
2022-08-25T01:48:28.883Z,18.47
2022-08-25T01:48:38.896Z,18.48
2022-08-25T01:48:48.882Z,18.50
2022-08-25T01:48:58.885Z,18.50
2022-08-25T01:49:08.886Z,18.50
2022-08-25T01:49:18.885Z,18.52
2022-08-25T01:49:28.875Z,18.52
2022-08-25T01:49:38.896Z,18.52
2022-08-25T01:49:48.887Z,18.55
2022-08-25T01:49:58.875Z,18.54
2022-08-25T01:50:08.901Z,18.54
2022-08-25T01:50:18.872Z,18.52
2022-08-25T01:50:28.874Z,18.51
2022-08-25T01:50:38.885Z,18.51
2022-08-25T01:50:48.875Z,18.52
2022-08-25T01:50:58.883Z,18.51
2022-08-25T01:51:08.888Z,18.50
2022-08-25T01:51:18.876Z,18.50
2022-08-25T01:51:28.876Z,18.50
2022-08-25T01:51:38.886Z,18.48
2022-08-25T01:51:48.870Z,18.48
2022-08-25T01:51:58.866Z,18.48
2022-08-25T01:52:08.866Z,18.48
2022-08-25T01:52:18.867Z,18.47
2022-08-25T01:52:28.870Z,18.45
2022-08-25T01:52:38.866Z,18.47
2022-08-25T01:52:48.866Z,18.47
2022-08-25T01:52:58.866Z,18.42
2022-08-25T01:53:08.867Z,18.44
2022-08-25T01:53:18.878Z,18.44
2022-08-25T01:53:28.867Z,18.44
2022-08-25T01:53:38.865Z,18.44
2022-08-25T01:53:48.857Z,18.44
2022-08-25T01:53:58.867Z,18.44
2022-08-25T01:54:08.861Z,18.44
2022-08-25T01:54:18.875Z,18.45
2022-08-25T01:54:28.869Z,18.45
2022-08-25T01:54:38.855Z,18.44
2022-08-25T01:54:48.870Z,18.45
2022-08-25T01:54:58.857Z,18.44
2022-08-25T01:55:08.856Z,18.44
2022-08-25T01:55:18.848Z,18.44
2022-08-25T01:55:28.857Z,18.42
2022-08-25T01:55:38.848Z,18.44
2022-08-25T01:55:48.859Z,18.42
2022-08-25T01:55:58.857Z,18.41
2022-08-25T01:56:09.749Z,18.39
2022-08-25T01:56:18.846Z,18.41
2022-08-25T01:56:28.848Z,18.39
2022-08-25T01:56:38.846Z,18.41
2022-08-25T01:56:48.848Z,18.41
2022-08-25T01:56:58.847Z,18.42
2022-08-25T01:57:08.849Z,18.42
2022-08-25T01:57:18.848Z,18.42
2022-08-25T01:57:28.840Z,18.41
2022-08-25T01:57:38.852Z,18.41
2022-08-25T01:57:48.838Z,18.42
2022-08-25T01:57:58.838Z,18.39
2022-08-25T01:58:08.844Z,18.37
2022-08-25T01:58:18.855Z,18.36
2022-08-25T01:58:28.838Z,18.36
2022-08-25T01:58:38.848Z,18.35
2022-08-25T01:58:48.844Z,18.33
2022-08-25T01:58:58.839Z,18.33
2022-08-25T01:59:08.837Z,18.32
2022-08-25T01:59:21.639Z,18.30
2022-08-25T01:59:28.844Z,18.30
2022-08-25T01:59:38.838Z,18.32
2022-08-25T01:59:48.837Z,18.29
2022-08-25T01:59:58.836Z,18.29
2022-08-25T02:00:08.839Z,18.29
2022-08-25T02:00:18.839Z,18.30
2022-08-25T02:00:28.831Z,18.29
2022-08-25T02:00:38.841Z,18.27
2022-08-25T02:00:48.832Z,18.30
2022-08-25T02:00:58.877Z,18.29
2022-08-25T02:01:08.868Z,18.30
2022-08-25T02:01:18.900Z,18.27
2022-08-25T02:01:28.939Z,18.30
2022-08-25T02:01:38.920Z,18.32
2022-08-25T02:01:48.870Z,18.33
2022-08-25T02:01:59.908Z,18.32
2022-08-25T02:02:08.905Z,18.33
2022-08-25T02:02:18.918Z,18.33
2022-08-25T02:02:28.887Z,18.32
2022-08-25T02:02:42.463Z,18.33
2022-08-25T02:02:52.293Z,18.33
2022-08-25T02:02:58.978Z,18.33
2022-08-25T02:03:14.299Z,18.32
2022-08-25T02:03:19.200Z,18.32
2022-08-25T02:03:28.820Z,18.30
2022-08-25T02:03:42.124Z,18.30
2022-08-25T02:03:48.819Z,18.30
2022-08-25T02:03:58.813Z,18.32
2022-08-25T02:04:08.812Z,18.29
2022-08-25T02:04:18.831Z,18.30
2022-08-25T02:04:28.820Z,18.29
2022-08-25T02:04:38.813Z,18.27
2022-08-25T02:04:48.812Z,18.29
2022-08-25T02:04:58.811Z,18.29
2022-08-25T02:05:08.812Z,18.26
2022-08-25T02:05:23.390Z,18.26
2022-08-25T02:05:28.805Z,18.26
2022-08-25T02:05:38.810Z,18.26
2022-08-25T02:05:48.866Z,18.21
2022-08-25T02:05:58.811Z,18.23
2022-08-25T02:06:08.800Z,18.23
2022-08-25T02:06:18.804Z,18.21
2022-08-25T02:06:29.969Z,18.21
2022-08-25T02:06:38.811Z,18.20
2022-08-25T02:06:48.811Z,18.20
2022-08-25T02:06:58.792Z,18.20
2022-08-25T02:07:08.799Z,18.20
2022-08-25T02:07:18.802Z,18.20
2022-08-25T02:07:28.803Z,18.21
2022-08-25T02:07:38.791Z,18.20
2022-08-25T02:07:48.809Z,18.18
2022-08-25T02:07:58.811Z,18.18
2022-08-25T02:08:08.794Z,18.18
2022-08-25T02:08:18.800Z,18.17
2022-08-25T02:08:28.792Z,18.18
2022-08-25T02:08:38.798Z,18.17
2022-08-25T02:08:48.794Z,18.17
2022-08-25T02:08:58.797Z,18.14